sensor_id;sensor_type;location;lat;lon;timestamp;temperature;humidity
60909;DHT22;46780;48.128;-1.704;2022-10-04T00:01:45;18.30;82.10
60909;DHT22;46780;48.128;-1.704;2022-10-04T00:04:18;18.40;82.20
60909;DHT22;46780;48.128;-1.704;2022-10-04T00:06:50;18.30;82.30
60909;DHT22;46780;48.128;-1.704;2022-10-04T00:09:20;18.30;82.40
60909;DHT22;46780;48.128;-1.704;2022-10-04T00:11:49;18.30;82.40
60909;DHT22;46780;48.128;-1.704;2022-10-04T00:14:19;18.30;82.30
60909;DHT22;46780;48.128;-1.704;2022-10-04T00:16:48;18.40;82.40
60909;DHT22;46780;48.128;-1.704;2022-10-04T00:22:16;18.40;82.10
60909;DHT22;46780;48.128;-1.704;2022-10-04T00:28:13;18.40;82.20
60909;DHT22;46780;48.128;-1.704;2022-10-04T00:30:40;18.30;82.40
60909;DHT22;46780;48.128;-1.704;2022-10-04T00:33:07;18.30;82.40
60909;DHT22;46780;48.128;-1.704;2022-10-04T00:35:50;18.30;82.50
60909;DHT22;46780;48.128;-1.704;2022-10-04T00:38:24;18.30;82.40
60909;DHT22;46780;48.128;-1.704;2022-10-04T00:40:55;18.30;82.60
60909;DHT22;46780;48.128;-1.704;2022-10-04T00:43:25;18.30;82.60
60909;DHT22;46780;48.128;-1.704;2022-10-04T00:45:53;18.30;82.70
60909;DHT22;46780;48.128;-1.704;2022-10-04T00:48:29;18.30;82.50
60909;DHT22;46780;48.128;-1.704;2022-10-04T00:51:04;18.20;82.70
60909;DHT22;46780;48.128;-1.704;2022-10-04T00:53:41;18.20;82.60
60909;DHT22;46780;48.128;-1.704;2022-10-04T00:56:12;18.30;82.60
60909;DHT22;46780;48.128;-1.704;2022-10-04T00:58:59;18.20;82.50
60909;DHT22;46780;48.128;-1.704;2022-10-04T01:01:30;18.20;82.50
60909;DHT22;46780;48.128;-1.704;2022-10-04T01:04:00;18.20;82.60
60909;DHT22;46780;48.128;-1.704;2022-10-04T01:06:30;18.20;82.70
60909;DHT22;46780;48.128;-1.704;2022-10-04T01:09:04;18.20;82.80
60909;DHT22;46780;48.128;-1.704;2022-10-04T01:11:35;18.20;83.00
60909;DHT22;46780;48.128;-1.704;2022-10-04T01:14:07;18.20;83.10
60909;DHT22;46780;48.128;-1.704;2022-10-04T01:16:35;18.10;83.20
60909;DHT22;46780;48.128;-1.704;2022-10-04T01:19:25;18.10;83.60
60909;DHT22;46780;48.128;-1.704;2022-10-04T01:22:08;18.10;84.00
60909;DHT22;46780;48.128;-1.704;2022-10-04T01:24:37;18.10;84.30
60909;DHT22;46780;48.128;-1.704;2022-10-04T01:27:31;18.10;84.60
60909;DHT22;46780;48.128;-1.704;2022-10-04T01:29:58;18.10;84.90
60909;DHT22;46780;48.128;-1.704;2022-10-04T01:32:25;18.00;85.50
60909;DHT22;46780;48.128;-1.704;2022-10-04T01:34:52;18.00;86.00
60909;DHT22;46780;48.128;-1.704;2022-10-04T01:37:18;18.00;86.40
60909;DHT22;46780;48.128;-1.704;2022-10-04T01:39:46;18.00;86.80
60909;DHT22;46780;48.128;-1.704;2022-10-04T01:42:16;18.00;87.30
60909;DHT22;46780;48.128;-1.704;2022-10-04T01:44:46;18.00;87.70
60909;DHT22;46780;48.128;-1.704;2022-10-04T01:47:17;17.90;88.00
60909;DHT22;46780;48.128;-1.704;2022-10-04T01:49:47;17.90;88.30
60909;DHT22;46780;48.128;-1.704;2022-10-04T01:52:17;17.80;88.60
60909;DHT22;46780;48.128;-1.704;2022-10-04T01:54:50;17.80;88.90
60909;DHT22;46780;48.128;-1.704;2022-10-04T01:57:22;17.80;89.00
60909;DHT22;46780;48.128;-1.704;2022-10-04T01:59:56;17.80;89.30
60909;DHT22;46780;48.128;-1.704;2022-10-04T02:02:29;17.80;89.60
60909;DHT22;46780;48.128;-1.704;2022-10-04T02:04:59;17.80;89.60
60909;DHT22;46780;48.128;-1.704;2022-10-04T02:07:29;17.70;89.60
60909;DHT22;46780;48.128;-1.704;2022-10-04T02:09:58;17.70;89.70
60909;DHT22;46780;48.128;-1.704;2022-10-04T02:12:27;17.70;89.40
60909;DHT22;46780;48.128;-1.704;2022-10-04T02:14:55;17.70;89.90
60909;DHT22;46780;48.128;-1.704;2022-10-04T02:17:25;17.70;90.00
60909;DHT22;46780;48.128;-1.704;2022-10-04T02:19:54;17.60;90.00
60909;DHT22;46780;48.128;-1.704;2022-10-04T02:22:22;17.60;90.00
60909;DHT22;46780;48.128;-1.704;2022-10-04T02:24:52;17.60;90.10
60909;DHT22;46780;48.128;-1.704;2022-10-04T02:27:25;17.60;90.10
60909;DHT22;46780;48.128;-1.704;2022-10-04T02:29:59;17.60;90.10
60909;DHT22;46780;48.128;-1.704;2022-10-04T02:32:29;17.50;90.10
60909;DHT22;46780;48.128;-1.704;2022-10-04T02:34:56;17.50;90.20
60909;DHT22;46780;48.128;-1.704;2022-10-04T02:37:25;17.50;90.30
60909;DHT22;46780;48.128;-1.704;2022-10-04T02:39:54;17.40;90.40
60909;DHT22;46780;48.128;-1.704;2022-10-04T02:42:32;17.40;90.50
60909;DHT22;46780;48.128;-1.704;2022-10-04T02:45:07;17.30;90.60
60909;DHT22;46780;48.128;-1.704;2022-10-04T02:47:42;17.30;90.70
60909;DHT22;46780;48.128;-1.704;2022-10-04T02:50:20;17.20;90.80
60909;DHT22;46780;48.128;-1.704;2022-10-04T02:52:52;17.20;90.80
60909;DHT22;46780;48.128;-1.704;2022-10-04T02:55:23;17.20;90.90
60909;DHT22;46780;48.128;-1.704;2022-10-04T02:57:52;17.10;90.90
60909;DHT22;46780;48.128;-1.704;2022-10-04T03:00:21;17.10;90.90
60909;DHT22;46780;48.128;-1.704;2022-10-04T03:03:07;17.10;91.00
60909;DHT22;46780;48.128;-1.704;2022-10-04T03:05:35;17.10;91.00
60909;DHT22;46780;48.128;-1.704;2022-10-04T03:08:03;17.10;91.10
60909;DHT22;46780;48.128;-1.704;2022-10-04T03:10:30;17.00;91.20
60909;DHT22;46780;48.128;-1.704;2022-10-04T03:12:58;17.00;91.30
60909;DHT22;46780;48.128;-1.704;2022-10-04T03:15:25;17.00;91.30
60909;DHT22;46780;48.128;-1.704;2022-10-04T03:17:53;17.00;91.30
60909;DHT22;46780;48.128;-1.704;2022-10-04T03:20:20;17.00;91.30
60909;DHT22;46780;48.128;-1.704;2022-10-04T03:22:52;17.00;91.30
60909;DHT22;46780;48.128;-1.704;2022-10-04T03:25:24;17.00;91.30
60909;DHT22;46780;48.128;-1.704;2022-10-04T03:27:51;17.00;91.30
60909;DHT22;46780;48.128;-1.704;2022-10-04T03:30:19;17.10;91.40
60909;DHT22;46780;48.128;-1.704;2022-10-04T03:32:46;17.10;91.40
60909;DHT22;46780;48.128;-1.704;2022-10-04T03:35:26;17.10;91.40
60909;DHT22;46780;48.128;-1.704;2022-10-04T03:37:54;17.10;91.40
60909;DHT22;46780;48.128;-1.704;2022-10-04T03:40:23;17.10;91.40
60909;DHT22;46780;48.128;-1.704;2022-10-04T03:42:52;17.10;91.40
60909;DHT22;46780;48.128;-1.704;2022-10-04T03:45:22;17.10;91.40
60909;DHT22;46780;48.128;-1.704;2022-10-04T03:47:49;17.10;91.40
60909;DHT22;46780;48.128;-1.704;2022-10-04T03:50:20;17.00;91.30
60909;DHT22;46780;48.128;-1.704;2022-10-04T03:52:50;17.00;91.30
60909;DHT22;46780;48.128;-1.704;2022-10-04T03:55:18;17.00;91.40
60909;DHT22;46780;48.128;-1.704;2022-10-04T03:57:45;17.00;91.30
60909;DHT22;46780;48.128;-1.704;2022-10-04T04:00:14;16.90;91.60
60909;DHT22;46780;48.128;-1.704;2022-10-04T04:02:45;16.90;91.60
60909;DHT22;46780;48.128;-1.704;2022-10-04T04:05:18;16.90;91.60
60909;DHT22;46780;48.128;-1.704;2022-10-04T04:07:49;16.90;92.10
60909;DHT22;46780;48.128;-1.704;2022-10-04T04:10:22;16.90;91.70
60909;DHT22;46780;48.128;-1.704;2022-10-04T04:12:54;16.90;91.80
60909;DHT22;46780;48.128;-1.704;2022-10-04T04:15:22;17.00;91.80
60909;DHT22;46780;48.128;-1.704;2022-10-04T04:17:54;16.90;91.80
60909;DHT22;46780;48.128;-1.704;2022-10-04T04:20:24;16.90;91.90
60909;DHT22;46780;48.128;-1.704;2022-10-04T04:22:58;16.90;92.00
60909;DHT22;46780;48.128;-1.704;2022-10-04T04:25:27;16.90;91.90
60909;DHT22;46780;48.128;-1.704;2022-10-04T04:28:00;16.90;91.90
60909;DHT22;46780;48.128;-1.704;2022-10-04T04:30:29;16.80;91.80
60909;DHT22;46780;48.128;-1.704;2022-10-04T04:33:06;16.80;92.00
60909;DHT22;46780;48.128;-1.704;2022-10-04T04:35:33;16.80;92.10
60909;DHT22;46780;48.128;-1.704;2022-10-04T04:38:09;16.70;92.10
60909;DHT22;46780;48.128;-1.704;2022-10-04T04:40:38;16.70;92.20
60909;DHT22;46780;48.128;-1.704;2022-10-04T04:43:05;16.70;92.40
60909;DHT22;46780;48.128;-1.704;2022-10-04T04:45:32;16.70;92.40
60909;DHT22;46780;48.128;-1.704;2022-10-04T04:48:00;16.60;92.40
60909;DHT22;46780;48.128;-1.704;2022-10-04T04:50:30;16.60;92.30
60909;DHT22;46780;48.128;-1.704;2022-10-04T04:53:02;16.60;92.40
60909;DHT22;46780;48.128;-1.704;2022-10-04T04:55:32;16.60;92.50
60909;DHT22;46780;48.128;-1.704;2022-10-04T04:57:59;16.50;92.70
60909;DHT22;46780;48.128;-1.704;2022-10-04T05:00:29;16.50;92.80
60909;DHT22;46780;48.128;-1.704;2022-10-04T05:02:57;16.40;92.90
60909;DHT22;46780;48.128;-1.704;2022-10-04T05:05:27;16.40;93.00
60909;DHT22;46780;48.128;-1.704;2022-10-04T05:08:19;16.40;93.00
60909;DHT22;46780;48.128;-1.704;2022-10-04T05:10:49;16.30;93.00
60909;DHT22;46780;48.128;-1.704;2022-10-04T05:13:17;16.30;93.20
60909;DHT22;46780;48.128;-1.704;2022-10-04T05:15:43;16.30;93.30
60909;DHT22;46780;48.128;-1.704;2022-10-04T05:18:21;16.30;93.30
60909;DHT22;46780;48.128;-1.704;2022-10-04T05:20:52;16.30;93.30
60909;DHT22;46780;48.128;-1.704;2022-10-04T05:23:19;16.20;93.10
60909;DHT22;46780;48.128;-1.704;2022-10-04T05:25:46;16.10;93.20
60909;DHT22;46780;48.128;-1.704;2022-10-04T05:28:13;16.10;93.20
60909;DHT22;46780;48.128;-1.704;2022-10-04T05:30:46;16.10;93.30
60909;DHT22;46780;48.128;-1.704;2022-10-04T05:33:20;16.00;93.40
60909;DHT22;46780;48.128;-1.704;2022-10-04T05:36:02;15.90;93.60
60909;DHT22;46780;48.128;-1.704;2022-10-04T05:38:38;15.90;93.70
60909;DHT22;46780;48.128;-1.704;2022-10-04T05:41:08;15.90;94.30
60909;DHT22;46780;48.128;-1.704;2022-10-04T05:43:36;15.90;94.00
60909;DHT22;46780;48.128;-1.704;2022-10-04T05:46:12;15.80;94.00
60909;DHT22;46780;48.128;-1.704;2022-10-04T05:48:41;15.80;94.10
60909;DHT22;46780;48.128;-1.704;2022-10-04T05:51:17;15.80;94.30
60909;DHT22;46780;48.128;-1.704;2022-10-04T05:53:44;15.80;94.40
60909;DHT22;46780;48.128;-1.704;2022-10-04T05:59:11;15.70;94.60
60909;DHT22;46780;48.128;-1.704;2022-10-04T06:01:45;15.70;94.70
60909;DHT22;46780;48.128;-1.704;2022-10-04T06:04:33;15.70;94.90
60909;DHT22;46780;48.128;-1.704;2022-10-04T06:07:14;15.80;95.00
60909;DHT22;46780;48.128;-1.704;2022-10-04T06:09:53;15.70;95.00
60909;DHT22;46780;48.128;-1.704;2022-10-04T06:12:31;15.70;95.00
60909;DHT22;46780;48.128;-1.704;2022-10-04T06:15:21;15.70;94.90
60909;DHT22;46780;48.128;-1.704;2022-10-04T06:18:16;15.80;94.90
60909;DHT22;46780;48.128;-1.704;2022-10-04T06:21:07;15.80;94.70
60909;DHT22;46780;48.128;-1.704;2022-10-04T06:23:46;15.80;94.70
60909;DHT22;46780;48.128;-1.704;2022-10-04T06:26:19;15.70;94.80
60909;DHT22;46780;48.128;-1.704;2022-10-04T06:28:50;15.80;94.70
60909;DHT22;46780;48.128;-1.704;2022-10-04T06:37:38;15.70;94.50
60909;DHT22;46780;48.128;-1.704;2022-10-04T06:43:39;15.70;94.60
60909;DHT22;46780;48.128;-1.704;2022-10-04T06:46:15;15.70;94.50
60909;DHT22;46780;48.128;-1.704;2022-10-04T06:48:56;15.70;94.40
60909;DHT22;46780;48.128;-1.704;2022-10-04T06:51:41;15.70;94.40
60909;DHT22;46780;48.128;-1.704;2022-10-04T06:54:23;15.70;94.30
60909;DHT22;46780;48.128;-1.704;2022-10-04T06:57:08;15.70;94.30
60909;DHT22;46780;48.128;-1.704;2022-10-04T06:59:54;15.60;94.30
60909;DHT22;46780;48.128;-1.704;2022-10-04T07:02:28;15.60;94.30
60909;DHT22;46780;48.128;-1.704;2022-10-04T07:04:59;15.60;94.40
60909;DHT22;46780;48.128;-1.704;2022-10-04T07:07:30;15.60;94.40
60909;DHT22;46780;48.128;-1.704;2022-10-04T07:10:02;15.60;94.40
60909;DHT22;46780;48.128;-1.704;2022-10-04T07:12:32;15.60;94.30
60909;DHT22;46780;48.128;-1.704;2022-10-04T07:15:03;15.60;94.20
60909;DHT22;46780;48.128;-1.704;2022-10-04T07:17:36;15.60;94.00
60909;DHT22;46780;48.128;-1.704;2022-10-04T07:20:05;15.70;94.00
60909;DHT22;46780;48.128;-1.704;2022-10-04T07:22:38;15.70;93.90
60909;DHT22;46780;48.128;-1.704;2022-10-04T07:25:12;15.70;93.90
60909;DHT22;46780;48.128;-1.704;2022-10-04T07:27:49;15.70;93.80
60909;DHT22;46780;48.128;-1.704;2022-10-04T07:30:18;15.70;93.70
60909;DHT22;46780;48.128;-1.704;2022-10-04T07:32:46;15.70;93.60
60909;DHT22;46780;48.128;-1.704;2022-10-04T07:35:25;15.80;93.50
60909;DHT22;46780;48.128;-1.704;2022-10-04T07:37:59;15.80;93.50
60909;DHT22;46780;48.128;-1.704;2022-10-04T07:40:32;15.80;93.40
60909;DHT22;46780;48.128;-1.704;2022-10-04T07:43:05;15.80;93.30
60909;DHT22;46780;48.128;-1.704;2022-10-04T07:45:36;15.90;93.20
60909;DHT22;46780;48.128;-1.704;2022-10-04T07:48:11;15.90;93.10
60909;DHT22;46780;48.128;-1.704;2022-10-04T07:50:40;15.90;92.90
60909;DHT22;46780;48.128;-1.704;2022-10-04T07:53:09;15.90;92.80
60909;DHT22;46780;48.128;-1.704;2022-10-04T07:55:47;15.90;92.70
60909;DHT22;46780;48.128;-1.704;2022-10-04T07:58:27;15.90;92.80
60909;DHT22;46780;48.128;-1.704;2022-10-04T08:00:58;16.00;92.90
60909;DHT22;46780;48.128;-1.704;2022-10-04T08:03:58;16.00;92.80
60909;DHT22;46780;48.128;-1.704;2022-10-04T08:06:33;16.10;92.90
60909;DHT22;46780;48.128;-1.704;2022-10-04T08:09:13;16.10;92.50
60909;DHT22;46780;48.128;-1.704;2022-10-04T08:11:50;16.20;92.20
60909;DHT22;46780;48.128;-1.704;2022-10-04T08:14:38;16.20;91.90
60909;DHT22;46780;48.128;-1.704;2022-10-04T08:17:16;16.20;91.70
60909;DHT22;46780;48.128;-1.704;2022-10-04T08:19:55;16.30;91.50
60909;DHT22;46780;48.128;-1.704;2022-10-04T08:22:32;16.30;91.40
60909;DHT22;46780;48.128;-1.704;2022-10-04T08:25:08;16.30;91.40
60909;DHT22;46780;48.128;-1.704;2022-10-04T08:27:50;16.30;91.50
60909;DHT22;46780;48.128;-1.704;2022-10-04T08:30:18;16.40;91.50
60909;DHT22;46780;48.128;-1.704;2022-10-04T08:32:57;16.40;91.30
60909;DHT22;46780;48.128;-1.704;2022-10-04T08:35:33;16.50;91.10
60909;DHT22;46780;48.128;-1.704;2022-10-04T08:38:20;16.50;91.00
60909;DHT22;46780;48.128;-1.704;2022-10-04T08:44:10;16.50;90.90
60909;DHT22;46780;48.128;-1.704;2022-10-04T08:49:57;16.50;90.70
60909;DHT22;46780;48.128;-1.704;2022-10-04T08:55:32;16.60;90.90
60909;DHT22;46780;48.128;-1.704;2022-10-04T08:58:13;16.60;90.80
60909;DHT22;46780;48.128;-1.704;2022-10-04T09:00:56;16.60;90.60
60909;DHT22;46780;48.128;-1.704;2022-10-04T09:03:55;16.60;90.60
60909;DHT22;46780;48.128;-1.704;2022-10-04T09:06:39;16.60;90.60
60909;DHT22;46780;48.128;-1.704;2022-10-04T09:09:34;16.60;90.70
60909;DHT22;46780;48.128;-1.704;2022-10-04T09:12:12;16.70;90.70
60909;DHT22;46780;48.128;-1.704;2022-10-04T09:15:12;16.70;90.70
60909;DHT22;46780;48.128;-1.704;2022-10-04T09:17:52;16.60;90.80
60909;DHT22;46780;48.128;-1.704;2022-10-04T09:20:32;16.70;91.10
60909;DHT22;46780;48.128;-1.704;2022-10-04T09:23:15;16.70;91.20
60909;DHT22;46780;48.128;-1.704;2022-10-04T09:26:05;16.70;91.30
60909;DHT22;46780;48.128;-1.704;2022-10-04T09:29:05;16.80;91.30
60909;DHT22;46780;48.128;-1.704;2022-10-04T09:31:47;16.80;91.30
60909;DHT22;46780;48.128;-1.704;2022-10-04T09:34:31;16.90;91.40
60909;DHT22;46780;48.128;-1.704;2022-10-04T09:43:15;17.60;91.70
60909;DHT22;46780;48.128;-1.704;2022-10-04T09:46:07;17.80;90.90
60909;DHT22;46780;48.128;-1.704;2022-10-04T09:48:40;17.90;90.20
60909;DHT22;46780;48.128;-1.704;2022-10-04T09:51:29;17.90;89.20
60909;DHT22;46780;48.128;-1.704;2022-10-04T09:54:20;17.80;88.60
60909;DHT22;46780;48.128;-1.704;2022-10-04T09:57:04;17.80;88.90
60909;DHT22;46780;48.128;-1.704;2022-10-04T10:00:06;17.80;88.90
60909;DHT22;46780;48.128;-1.704;2022-10-04T10:05:48;17.70;88.50
60909;DHT22;46780;48.128;-1.704;2022-10-04T10:08:23;17.60;87.80
60909;DHT22;46780;48.128;-1.704;2022-10-04T10:10:57;17.60;87.90
60909;DHT22;46780;48.128;-1.704;2022-10-04T10:13:47;17.50;88.20
60909;DHT22;46780;48.128;-1.704;2022-10-04T10:16:31;17.50;87.80
60909;DHT22;46780;48.128;-1.704;2022-10-04T10:19:15;17.50;88.10
60909;DHT22;46780;48.128;-1.704;2022-10-04T10:21:58;17.50;88.00
60909;DHT22;46780;48.128;-1.704;2022-10-04T10:27:47;17.50;88.20
60909;DHT22;46780;48.128;-1.704;2022-10-04T10:30:21;17.50;88.50
60909;DHT22;46780;48.128;-1.704;2022-10-04T10:33:23;17.50;88.40
60909;DHT22;46780;48.128;-1.704;2022-10-04T10:36:12;17.50;88.20
60909;DHT22;46780;48.128;-1.704;2022-10-04T10:38:49;17.50;88.10
60909;DHT22;46780;48.128;-1.704;2022-10-04T10:41:44;17.50;88.50
60909;DHT22;46780;48.128;-1.704;2022-10-04T10:44:34;17.50;88.80
60909;DHT22;46780;48.128;-1.704;2022-10-04T10:47:23;17.50;88.50
60909;DHT22;46780;48.128;-1.704;2022-10-04T10:50:05;17.70;88.70
60909;DHT22;46780;48.128;-1.704;2022-10-04T10:53:15;17.80;87.50
60909;DHT22;46780;48.128;-1.704;2022-10-04T10:56:33;17.80;86.60
60909;DHT22;46780;48.128;-1.704;2022-10-04T11:09:21;17.70;85.60
60909;DHT22;46780;48.128;-1.704;2022-10-04T11:21:07;17.60;86.50
60909;DHT22;46780;48.128;-1.704;2022-10-04T11:26:55;17.50;87.10
60909;DHT22;46780;48.128;-1.704;2022-10-04T11:29:37;17.50;87.40
60909;DHT22;46780;48.128;-1.704;2022-10-04T11:38:29;17.50;87.20
60909;DHT22;46780;48.128;-1.704;2022-10-04T11:41:12;17.50;87.40
60909;DHT22;46780;48.128;-1.704;2022-10-04T11:46:47;17.40;87.70
60909;DHT22;46780;48.128;-1.704;2022-10-04T11:49:42;17.40;88.10
60909;DHT22;46780;48.128;-1.704;2022-10-04T11:55:48;17.50;88.20
60909;DHT22;46780;48.128;-1.704;2022-10-04T11:58:26;17.50;88.10
60909;DHT22;46780;48.128;-1.704;2022-10-04T12:01:13;17.50;88.10
60909;DHT22;46780;48.128;-1.704;2022-10-04T12:03:54;17.40;88.30
60909;DHT22;46780;48.128;-1.704;2022-10-04T12:06:46;17.40;88.70
60909;DHT22;46780;48.128;-1.704;2022-10-04T12:09:22;17.40;89.00
60909;DHT22;46780;48.128;-1.704;2022-10-04T12:12:20;17.40;89.20
60909;DHT22;46780;48.128;-1.704;2022-10-04T12:15:01;17.40;89.30
60909;DHT22;46780;48.128;-1.704;2022-10-04T12:24:12;17.40;89.80
60909;DHT22;46780;48.128;-1.704;2022-10-04T12:30:13;17.50;89.80
60909;DHT22;46780;48.128;-1.704;2022-10-04T12:32:52;17.50;89.70
60909;DHT22;46780;48.128;-1.704;2022-10-04T12:35:26;17.50;89.20
60909;DHT22;46780;48.128;-1.704;2022-10-04T12:38:17;17.50;89.40
60909;DHT22;46780;48.128;-1.704;2022-10-04T12:40:50;17.60;88.60
60909;DHT22;46780;48.128;-1.704;2022-10-04T12:43:25;17.60;88.50
60909;DHT22;46780;48.128;-1.704;2022-10-04T12:46:04;17.50;88.20
60909;DHT22;46780;48.128;-1.704;2022-10-04T12:48:45;17.50;88.20
60909;DHT22;46780;48.128;-1.704;2022-10-04T12:51:26;17.50;88.10
60909;DHT22;46780;48.128;-1.704;2022-10-04T12:54:00;17.50;88.40
60909;DHT22;46780;48.128;-1.704;2022-10-04T12:56:45;17.40;88.70
60909;DHT22;46780;48.128;-1.704;2022-10-04T12:59:27;17.40;89.10
60909;DHT22;46780;48.128;-1.704;2022-10-04T13:02:08;17.30;89.10
60909;DHT22;46780;48.128;-1.704;2022-10-04T13:04:46;17.30;89.80
60909;DHT22;46780;48.128;-1.704;2022-10-04T13:07:41;17.30;89.90
60909;DHT22;46780;48.128;-1.704;2022-10-04T13:10:30;17.40;90.00
60909;DHT22;46780;48.128;-1.704;2022-10-04T13:13:22;17.30;90.00
60909;DHT22;46780;48.128;-1.704;2022-10-04T13:15:52;17.30;90.00
60909;DHT22;46780;48.128;-1.704;2022-10-04T13:18:27;17.30;90.20
60909;DHT22;46780;48.128;-1.704;2022-10-04T13:20:59;17.40;90.40
60909;DHT22;46780;48.128;-1.704;2022-10-04T13:23:37;17.30;90.50
60909;DHT22;46780;48.128;-1.704;2022-10-04T13:26:32;17.30;90.60
60909;DHT22;46780;48.128;-1.704;2022-10-04T13:29:06;17.40;90.50
60909;DHT22;46780;48.128;-1.704;2022-10-04T13:31:45;17.30;90.70
60909;DHT22;46780;48.128;-1.704;2022-10-04T13:34:22;17.30;90.60
60909;DHT22;46780;48.128;-1.704;2022-10-04T13:37:11;17.30;90.60
60909;DHT22;46780;48.128;-1.704;2022-10-04T13:39:51;17.40;90.50
60909;DHT22;46780;48.128;-1.704;2022-10-04T13:42:35;17.40;90.50
60909;DHT22;46780;48.128;-1.704;2022-10-04T13:45:25;17.40;90.40
60909;DHT22;46780;48.128;-1.704;2022-10-04T13:48:14;17.40;90.40
60909;DHT22;46780;48.128;-1.704;2022-10-04T13:50:51;17.40;90.50
60909;DHT22;46780;48.128;-1.704;2022-10-04T13:53:29;17.40;90.70
60909;DHT22;46780;48.128;-1.704;2022-10-04T13:56:02;17.50;91.00
60909;DHT22;46780;48.128;-1.704;2022-10-04T13:58:34;17.60;90.80
60909;DHT22;46780;48.128;-1.704;2022-10-04T14:04:10;17.90;90.40
60909;DHT22;46780;48.128;-1.704;2022-10-04T14:07:28;18.00;90.00
60909;DHT22;46780;48.128;-1.704;2022-10-04T14:10:17;18.10;89.60
60909;DHT22;46780;48.128;-1.704;2022-10-04T14:22:07;18.10;88.70
60909;DHT22;46780;48.128;-1.704;2022-10-04T14:25:16;18.00;88.50
60909;DHT22;46780;48.128;-1.704;2022-10-04T14:28:12;18.00;88.40
60909;DHT22;46780;48.128;-1.704;2022-10-04T14:30:54;18.00;88.60
60909;DHT22;46780;48.128;-1.704;2022-10-04T14:33:43;17.90;88.50
60909;DHT22;46780;48.128;-1.704;2022-10-04T14:36:46;17.90;88.70
60909;DHT22;46780;48.128;-1.704;2022-10-04T14:45:34;18.00;88.50
60909;DHT22;46780;48.128;-1.704;2022-10-04T14:48:22;18.00;88.40
60909;DHT22;46780;48.128;-1.704;2022-10-04T14:51:08;18.00;88.50
60909;DHT22;46780;48.128;-1.704;2022-10-04T14:53:47;18.00;88.40
60909;DHT22;46780;48.128;-1.704;2022-10-04T14:59:25;18.00;88.30
60909;DHT22;46780;48.128;-1.704;2022-10-04T15:02:18;18.00;88.50
60909;DHT22;46780;48.128;-1.704;2022-10-04T15:05:22;18.00;88.50
60909;DHT22;46780;48.128;-1.704;2022-10-04T15:07:53;17.90;88.50
60909;DHT22;46780;48.128;-1.704;2022-10-04T15:10:26;17.90;88.50
60909;DHT22;46780;48.128;-1.704;2022-10-04T15:13:01;17.90;88.60
60909;DHT22;46780;48.128;-1.704;2022-10-04T15:18:35;17.90;88.90
60909;DHT22;46780;48.128;-1.704;2022-10-04T15:21:26;17.90;88.80
60909;DHT22;46780;48.128;-1.704;2022-10-04T15:23:59;17.90;88.80
60909;DHT22;46780;48.128;-1.704;2022-10-04T15:26:49;17.90;88.80
60909;DHT22;46780;48.128;-1.704;2022-10-04T15:29:25;18.00;88.70
60909;DHT22;46780;48.128;-1.704;2022-10-04T15:32:04;17.90;88.30
60909;DHT22;46780;48.128;-1.704;2022-10-04T15:34:38;17.90;87.80
60909;DHT22;46780;48.128;-1.704;2022-10-04T15:37:23;17.90;88.00
60909;DHT22;46780;48.128;-1.704;2022-10-04T15:40:07;17.90;88.10
60909;DHT22;46780;48.128;-1.704;2022-10-04T15:42:56;17.90;88.00
60909;DHT22;46780;48.128;-1.704;2022-10-04T15:45:46;18.00;88.00
60909;DHT22;46780;48.128;-1.704;2022-10-04T15:48:36;18.00;87.80
60909;DHT22;46780;48.128;-1.704;2022-10-04T15:51:18;18.00;87.80
60909;DHT22;46780;48.128;-1.704;2022-10-04T15:54:09;18.00;87.80
60909;DHT22;46780;48.128;-1.704;2022-10-04T15:56:47;18.00;87.90
60909;DHT22;46780;48.128;-1.704;2022-10-04T15:59:41;18.00;87.90
60909;DHT22;46780;48.128;-1.704;2022-10-04T16:02:23;18.10;87.70
60909;DHT22;46780;48.128;-1.704;2022-10-04T16:04:58;18.10;87.50
60909;DHT22;46780;48.128;-1.704;2022-10-04T16:08:05;18.10;87.50
60909;DHT22;46780;48.128;-1.704;2022-10-04T16:11:00;18.10;87.10
60909;DHT22;46780;48.128;-1.704;2022-10-04T16:13:55;18.10;86.80
60909;DHT22;46780;48.128;-1.704;2022-10-04T16:16:58;18.10;86.20
60909;DHT22;46780;48.128;-1.704;2022-10-04T16:19:55;18.10;85.20
60909;DHT22;46780;48.128;-1.704;2022-10-04T16:22:27;18.10;85.10
60909;DHT22;46780;48.128;-1.704;2022-10-04T16:24:57;18.10;84.30
60909;DHT22;46780;48.128;-1.704;2022-10-04T16:27:43;18.10;84.00
60909;DHT22;46780;48.128;-1.704;2022-10-04T16:30:23;18.10;83.40
60909;DHT22;46780;48.128;-1.704;2022-10-04T16:33:04;18.10;83.20
60909;DHT22;46780;48.128;-1.704;2022-10-04T16:35:40;18.10;83.80
60909;DHT22;46780;48.128;-1.704;2022-10-04T16:38:20;18.10;84.40
60909;DHT22;46780;48.128;-1.704;2022-10-04T16:41:05;18.20;84.60
60909;DHT22;46780;48.128;-1.704;2022-10-04T16:43:33;18.20;84.70
60909;DHT22;46780;48.128;-1.704;2022-10-04T16:46:16;18.10;83.80
60909;DHT22;46780;48.128;-1.704;2022-10-04T16:48:50;18.10;83.60
60909;DHT22;46780;48.128;-1.704;2022-10-04T16:51:41;18.10;83.30
60909;DHT22;46780;48.128;-1.704;2022-10-04T16:54:31;18.10;83.20
60909;DHT22;46780;48.128;-1.704;2022-10-04T16:57:14;18.00;83.00
60909;DHT22;46780;48.128;-1.704;2022-10-04T16:59:46;18.00;83.20
60909;DHT22;46780;48.128;-1.704;2022-10-04T17:05:20;18.00;83.30
60909;DHT22;46780;48.128;-1.704;2022-10-04T17:08:05;18.00;83.20
60909;DHT22;46780;48.128;-1.704;2022-10-04T17:10:57;18.00;83.10
60909;DHT22;46780;48.128;-1.704;2022-10-04T17:13:33;18.00;83.10
60909;DHT22;46780;48.128;-1.704;2022-10-04T17:16:09;18.00;83.20
60909;DHT22;46780;48.128;-1.704;2022-10-04T17:22:10;18.00;83.00
60909;DHT22;46780;48.128;-1.704;2022-10-04T17:24:54;18.00;83.30
60909;DHT22;46780;48.128;-1.704;2022-10-04T17:27:43;18.00;83.30
60909;DHT22;46780;48.128;-1.704;2022-10-04T17:30:18;18.00;83.30
60909;DHT22;46780;48.128;-1.704;2022-10-04T17:33:16;18.00;83.30
60909;DHT22;46780;48.128;-1.704;2022-10-04T17:36:09;18.00;83.30
60909;DHT22;46780;48.128;-1.704;2022-10-04T17:38:45;18.00;83.40
60909;DHT22;46780;48.128;-1.704;2022-10-04T17:41:18;17.90;83.50
60909;DHT22;46780;48.128;-1.704;2022-10-04T17:44:19;18.00;83.50
60909;DHT22;46780;48.128;-1.704;2022-10-04T17:46:59;17.90;83.50
60909;DHT22;46780;48.128;-1.704;2022-10-04T17:49:35;17.90;83.70
60909;DHT22;46780;48.128;-1.704;2022-10-04T17:52:13;17.90;83.70
60909;DHT22;46780;48.128;-1.704;2022-10-04T17:54:44;17.90;83.90
60909;DHT22;46780;48.128;-1.704;2022-10-04T17:57:21;17.90;84.00
60909;DHT22;46780;48.128;-1.704;2022-10-04T17:59:52;17.90;84.00
60909;DHT22;46780;48.128;-1.704;2022-10-04T18:02:28;17.90;84.10
60909;DHT22;46780;48.128;-1.704;2022-10-04T18:05:02;17.90;84.20
60909;DHT22;46780;48.128;-1.704;2022-10-04T18:07:35;17.90;84.30
60909;DHT22;46780;48.128;-1.704;2022-10-04T18:10:17;17.90;84.40
60909;DHT22;46780;48.128;-1.704;2022-10-04T18:12:50;17.90;84.40
60909;DHT22;46780;48.128;-1.704;2022-10-04T18:15:22;17.90;84.50
60909;DHT22;46780;48.128;-1.704;2022-10-04T18:18:05;17.90;85.40